Terminal Aerodrome Forecast
Issued by NWS

Home | Current Version | Previous Version | Text Only | Print | Product List | Glossary On
Versions: 1 2 3 4 5 6 7 8 9 10 11 12 13
280
FTUS45 KTFX 220532
TAFHLN
TAF
KHLN 220532Z 2206/2306 25009KT P6SM OVC050
     FM220900 25008KT P6SM VCSH OVC045
     FM221500 26006KT P6SM VCSH OVC040
      TEMPO 2217/2221 4SM -SHRASN BR OVC025
     FM222100 29009KT P6SM VCSH SCT040 OVC050=

USA.gov is the U.S. government's official web portal to all federal, state and local government web resources and services.